Time,TemperatureF,DewpointF,PressureIn,WindDirection,WindDirectionDegrees,WindSpeedMPH,WindSpeedGustMPH,Humidity,HourlyPrecipIn,Conditions,Clouds,dailyrainin,SoftwareType,DateUTC
2013-05-09 00:03:00,62.0,55.0,-100.00,ENE,70,5.0,8.0,78,-99.99,,,-99.99,,2013-05-09 04:03:00,
2013-05-09 00:12:00,61.0,55.0,-100.00,ENE,60,2.0,6.0,79,-99.99,,,-99.99,,2013-05-09 04:12:00,
2013-05-09 00:23:00,61.0,55.0,-100.00,NNE,25,2.0,4.0,80,-99.99,,,-99.99,,2013-05-09 04:23:00,
2013-05-09 00:33:00,61.0,55.0,-100.00,NNE,25,2.0,4.0,80,-99.99,,,-99.99,,2013-05-09 04:33:00,
2013-05-09 00:43:00,60.0,55.0,-100.00,NW,310,0.0,0.0,83,-99.99,,,-99.99,,2013-05-09 04:43:00,
2013-05-09 00:52:00,59.0,55.0,-100.00,WSW,245,1.0,2.0,84,-99.99,,,-99.99,,2013-05-09 04:52:00,
2013-05-09 01:02:00,59.0,55.0,-100.00,WSW,245,2.0,3.0,86,-99.99,,,-99.99,,2013-05-09 05:02:00,
2013-05-09 01:12:00,58.0,55.0,-100.00,West,260,2.0,3.0,86,-99.99,,,-99.99,,2013-05-09 05:12:00,
2013-05-09 01:22:00,58.0,54.0,-100.00,West,270,2.0,2.0,88,-99.99,,,-99.99,,2013-05-09 05:22:00,
2013-05-09 01:32:00,57.0,54.0,-100.00,West,265,2.0,3.0,89,-99.99,,,-99.99,,2013-05-09 05:32:00,
2013-05-09 01:42:00,57.0,54.0,-100.00,WNW,300,1.0,2.0,90,-99.99,,,-99.99,,2013-05-09 05:42:00,
2013-05-09 01:51:00,56.0,54.0,-100.00,WNW,290,3.0,3.0,90,-99.99,,,-99.99,,2013-05-09 05:51:00,
2013-05-09 02:02:00,56.0,53.0,-100.00,WNW,290,2.0,3.0,90,-99.99,,,-99.99,,2013-05-09 06:02:00,
2013-05-09 02:12:00,56.0,53.0,-100.00,West,275,4.0,4.0,91,-99.99,,,-99.99,,2013-05-09 06:12:00,
2013-05-09 02:21:00,55.0,53.0,-100.00,West,280,4.0,6.0,90,-99.99,,,-99.99,,2013-05-09 06:21:00,
2013-05-09 02:32:00,55.0,53.0,-100.00,West,275,4.0,6.0,90,-99.99,,,-99.99,,2013-05-09 06:32:00,
2013-05-09 02:42:00,56.0,53.0,-100.00,WNW,285,3.0,4.0,89,-99.99,,,-99.99,,2013-05-09 06:42:00,
2013-05-09 02:52:00,55.0,52.0,-100.00,West,280,3.0,4.0,89,-99.99,,,-99.99,,2013-05-09 06:52:00,
2013-05-09 03:01:00,55.0,52.0,-100.00,West,275,3.0,4.0,89,-99.99,,,-99.99,,2013-05-09 07:01:00,
2013-05-09 03:12:00,54.0,51.0,-100.00,West,270,2.0,4.0,90,-99.99,,,-99.99,,2013-05-09 07:12:00,
2013-05-09 03:21:00,54.0,51.0,-100.00,West,275,4.0,4.0,91,-99.99,,,-99.99,,2013-05-09 07:21:00,
2013-05-09 03:32:00,54.0,52.0,-100.00,WNW,285,4.0,6.0,92,-99.99,,,-99.99,,2013-05-09 07:32:00,
2013-05-09 03:42:00,55.0,52.0,-100.00,WNW,300,4.0,6.0,90,-99.99,,,-99.99,,2013-05-09 07:42:00,
2013-05-09 03:52:00,56.0,52.0,-100.00,WNW,290,4.0,4.0,87,-99.99,,,-99.99,,2013-05-09 07:52:00,
2013-05-09 04:02:00,56.0,52.0,-100.00,West,275,4.0,4.0,86,-99.99,,,-99.99,,2013-05-09 08:02:00,
2013-05-09 04:11:00,55.0,51.0,-100.00,WNW,295,4.0,5.0,86,-99.99,,,-99.99,,2013-05-09 08:11:00,
2013-05-09 04:21:00,55.0,51.0,-100.00,West,280,3.0,4.0,87,-99.99,,,-99.99,,2013-05-09 08:21:00,
2013-05-09 04:32:00,54.0,51.0,-100.00,NW,320,1.0,4.0,88,-99.99,,,-99.99,,2013-05-09 08:32:00,
2013-05-09 04:42:00,54.0,51.0,-100.00,WNW,300,2.0,2.0,89,-99.99,,,-99.99,,2013-05-09 08:42:00,
2013-05-09 04:51:00,54.0,51.0,-100.00,WNW,285,4.0,5.0,89,-99.99,,,-99.99,,2013-05-09 08:51:00,
2013-05-09 05:02:00,54.0,51.0,-100.00,WNW,290,4.0,6.0,89,-99.99,,,-99.99,,2013-05-09 09:02:00,
2013-05-09 05:11:00,54.0,51.0,-100.00,WNW,285,4.0,6.0,90,-99.99,,,-99.99,,2013-05-09 09:11:00,
2013-05-09 05:21:00,53.0,50.0,-100.00,West,280,4.0,6.0,90,-99.99,,,-99.99,,2013-05-09 09:21:00,
2013-05-09 05:32:00,52.0,50.0,-100.00,West,280,6.0,7.0,92,-99.99,,,-99.99,,2013-05-09 09:32:00,
2013-05-09 05:43:00,52.0,50.0,-100.00,West,270,5.0,6.0,92,-99.99,,,-99.99,,2013-05-09 09:43:00,
2013-05-09 05:52:00,53.0,51.0,-100.00,WNW,285,6.0,7.0,93,-99.99,,,-99.99,,2013-05-09 09:52:00,
2013-05-09 06:02:00,53.0,51.0,-100.00,West,280,5.0,6.0,93,-99.99,,,-99.99,,2013-05-09 10:02:00,
2013-05-09 06:12:00,53.0,51.0,-100.00,WNW,290,4.0,6.0,93,-99.99,,,-99.99,,2013-05-09 10:12:00,
2013-05-09 06:22:00,54.0,52.0,-100.00,West,280,5.0,6.0,91,-99.99,,,-99.99,,2013-05-09 10:22:00,
2013-05-09 06:33:00,55.0,52.0,-100.00,WNW,295,5.0,6.0,89,-99.99,,,-99.99,,2013-05-09 10:33:00,
2013-05-09 06:42:00,55.0,51.0,-100.00,WNW,295,6.0,7.0,88,-99.99,,,-99.99,,2013-05-09 10:42:00,
2013-05-09 06:52:00,55.0,51.0,-100.00,WNW,295,7.0,7.0,87,-99.99,,,-99.99,,2013-05-09 10:52:00,
2013-05-09 07:02:00,56.0,52.0,-100.00,WNW,295,7.0,9.0,86,-99.99,,,-99.99,,2013-05-09 11:02:00,
2013-05-09 07:12:00,56.0,52.0,-100.00,WNW,295,7.0,9.0,85,-99.99,,,-99.99,,2013-05-09 11:12:00,
2013-05-09 07:22:00,56.0,52.0,-100.00,NW,305,7.0,9.0,85,-99.99,,,-99.99,,2013-05-09 11:22:00,
2013-05-09 07:32:00,57.0,52.0,-100.00,WNW,300,6.0,7.0,83,-99.99,,,-99.99,,2013-05-09 11:32:00,
2013-05-09 07:41:00,58.0,52.0,-100.00,NW,310,2.0,7.0,82,-99.99,,,-99.99,,2013-05-09 11:41:00,
2013-05-09 07:51:00,59.0,53.0,-100.00,West,265,0.0,2.0,80,-99.99,,,-99.99,,2013-05-09 11:51:00,
2013-05-09 08:01:00,60.0,53.0,-100.00,North,10,0.0,2.0,77,-99.99,,,-99.99,,2013-05-09 12:01:00,
2013-05-09 08:11:00,62.0,53.0,-100.00,WNW,295,1.0,2.0,74,-99.99,,,-99.99,,2013-05-09 12:11:00,
2013-05-09 08:22:00,63.0,53.0,-100.00,NW,305,2.0,2.0,71,-99.99,,,-99.99,,2013-05-09 12:22:00,
2013-05-09 08:32:00,63.0,53.0,-100.00,NW,310,3.0,4.0,69,-99.99,,,-99.99,,2013-05-09 12:32:00,
2013-05-09 08:42:00,64.0,53.0,-100.00,NW,320,3.0,6.0,67,-99.99,,,-99.99,,2013-05-09 12:42:00,
2013-05-09 08:52:00,64.0,53.0,-100.00,NW,305,3.0,7.0,66,-99.99,,,-99.99,,2013-05-09 12:52:00,
2013-05-09 09:01:00,66.0,54.0,-100.00,NW,320,2.0,6.0,64,-99.99,,,-99.99,,2013-05-09 13:01:00,
2013-05-09 09:12:00,67.0,54.0,-100.00,NNW,340,1.0,4.0,62,-99.99,,,-99.99,,2013-05-09 13:12:00,
2013-05-09 09:22:00,69.0,54.0,-100.00,NW,305,1.0,4.0,60,-99.99,,,-99.99,,2013-05-09 13:22:00,
2013-05-09 09:32:00,69.0,53.0,-100.00,NW,315,2.0,5.0,58,-99.99,,,-99.99,,2013-05-09 13:32:00,
2013-05-09 09:42:00,70.0,54.0,-100.00,NW,315,3.0,6.0,56,-99.99,,,-99.99,,2013-05-09 13:42:00,
2013-05-09 09:52:00,70.0,53.0,-100.00,WNW,295,2.0,6.0,53,-99.99,,,-99.99,,2013-05-09 13:52:00,
2013-05-09 10:02:00,71.0,53.0,-100.00,West,280,4.0,6.0,52,-99.99,,,-99.99,,2013-05-09 14:02:00,
2013-05-09 10:11:00,71.0,52.0,-100.00,WNW,295,5.0,7.0,49,-99.99,,,-99.99,,2013-05-09 14:11:00,
2013-05-09 10:22:00,72.0,52.0,-100.00,WNW,290,4.0,8.0,48,-99.99,,,-99.99,,2013-05-09 14:22:00,
2013-05-09 10:32:00,72.0,52.0,-100.00,WNW,290,4.0,8.0,48,-99.99,,,-99.99,,2013-05-09 14:32:00,
2013-05-09 10:42:00,73.0,52.0,-100.00,WNW,290,6.0,9.0,47,-99.99,,,-99.99,,2013-05-09 14:42:00,
2013-05-09 10:52:00,73.0,51.0,-100.00,WNW,285,5.0,7.0,45,-99.99,,,-99.99,,2013-05-09 14:52:00,
2013-05-09 11:01:00,74.0,50.0,-100.00,West,275,3.0,7.0,43,-99.99,,,-99.99,,2013-05-09 15:01:00,
2013-05-09 11:11:00,74.0,51.0,-100.00,WNW,300,3.0,6.0,44,-99.99,,,-99.99,,2013-05-09 15:11:00,
2013-05-09 11:22:00,75.0,51.0,-100.00,WNW,285,4.0,9.0,42,-99.99,,,-99.99,,2013-05-09 15:22:00,
2013-05-09 11:33:00,76.0,51.0,-100.00,WSW,255,2.0,7.0,41,-99.99,,,-99.99,,2013-05-09 15:33:00,
2013-05-09 11:43:00,76.0,51.0,-100.00,WSW,255,2.0,7.0,41,-99.99,,,-99.99,,2013-05-09 15:43:00,
2013-05-09 11:53:00,77.0,51.0,-100.00,West,265,4.0,9.0,40,-99.99,,,-99.99,,2013-05-09 15:53:00,
2013-05-09 12:03:00,76.0,50.0,-100.00,NW,305,3.0,8.0,38,-99.99,,,-99.99,,2013-05-09 16:03:00,
2013-05-09 12:12:00,78.0,50.0,-100.00,WNW,290,4.0,7.0,38,-99.99,,,-99.99,,2013-05-09 16:12:00,
2013-05-09 12:23:00,77.0,50.0,-100.00,WSW,255,1.0,5.0,38,-99.99,,,-99.99,,2013-05-09 16:23:00,
2013-05-09 12:33:00,78.0,51.0,-100.00,South,190,3.0,7.0,38,-99.99,,,-99.99,,2013-05-09 16:33:00,
2013-05-09 12:42:00,78.0,51.0,-100.00,SSW,200,4.0,7.0,38,-99.99,,,-99.99,,2013-05-09 16:42:00,
2013-05-09 12:52:00,78.0,51.0,-100.00,SSW,210,2.0,8.0,39,-99.99,,,-99.99,,2013-05-09 16:52:00,
2013-05-09 13:02:00,79.0,51.0,-100.00,SW,215,3.0,7.0,36,-99.99,,,-99.99,,2013-05-09 17:02:00,
2013-05-09 13:12:00,81.0,50.0,-100.00,SW,220,2.0,9.0,34,-99.99,,,-99.99,,2013-05-09 17:12:00,
2013-05-09 13:21:00,80.0,48.0,-100.00,WSW,255,4.0,7.0,33,-99.99,,,-99.99,,2013-05-09 17:21:00,
2013-05-09 13:32:00,80.0,49.0,-100.00,SW,215,2.0,7.0,34,-99.99,,,-99.99,,2013-05-09 17:32:00,
2013-05-09 13:42:00,79.0,49.0,-100.00,SW,220,4.0,9.0,35,-99.99,,,-99.99,,2013-05-09 17:42:00,
2013-05-09 13:55:00,80.0,48.0,-100.00,SSW,210,3.0,9.0,33,-99.99,,,-99.99,,2013-05-09 17:55:00,
2013-05-09 14:01:00,80.0,49.0,-100.00,SW,215,5.0,9.0,33,-99.99,,,-99.99,,2013-05-09 18:01:00,
2013-05-09 14:12:00,80.0,48.0,-100.00,SW,230,2.0,6.0,33,-99.99,,,-99.99,,2013-05-09 18:12:00,
2013-05-09 14:21:00,81.0,49.0,-100.00,SSE,160,2.0,5.0,32,-99.99,,,-99.99,,2013-05-09 18:21:00,
2013-05-09 14:32:00,81.0,48.0,-100.00,East,100,1.0,10.0,31,-99.99,,,-99.99,,2013-05-09 18:32:00,
2013-05-09 14:42:00,80.0,47.0,-100.00,SE,145,2.0,4.0,31,-99.99,,,-99.99,,2013-05-09 18:42:00,
2013-05-09 14:52:00,82.0,49.0,-100.00,WSW,240,3.0,8.0,31,-99.99,,,-99.99,,2013-05-09 18:52:00,
2013-05-09 15:01:00,82.0,47.0,-100.00,SW,235,3.0,8.0,30,-99.99,,,-99.99,,2013-05-09 19:01:00,
2013-05-09 15:12:00,83.0,47.0,-100.00,SSW,205,2.0,9.0,29,-99.99,,,-99.99,,2013-05-09 19:12:00,
2013-05-09 15:21:00,81.0,45.0,-100.00,WNW,290,6.0,9.0,28,-99.99,,,-99.99,,2013-05-09 19:21:00,
2013-05-09 15:32:00,80.0,44.0,-100.00,WNW,295,6.0,10.0,27,-99.99,,,-99.99,,2013-05-09 19:32:00,
2013-05-09 15:41:00,82.0,44.0,-100.00,WSW,250,6.0,12.0,26,-99.99,,,-99.99,,2013-05-09 19:41:00,
2013-05-09 15:52:00,82.0,44.0,-100.00,West,265,6.0,14.0,26,-99.99,,,-99.99,,2013-05-09 19:52:00,
2013-05-09 16:01:00,82.0,44.0,-100.00,West,270,6.0,10.0,26,-99.99,,,-99.99,,2013-05-09 20:01:00,
2013-05-09 16:11:00,80.0,43.0,-100.00,West,260,6.0,13.0,27,-99.99,,,-99.99,,2013-05-09 20:11:00,
2013-05-09 16:22:00,82.0,44.0,-100.00,West,270,4.0,8.0,26,-99.99,,,-99.99,,2013-05-09 20:22:00,
2013-05-09 16:32:00,82.0,45.0,-100.00,West,265,4.0,11.0,27,-99.99,,,-99.99,,2013-05-09 20:32:00,
2013-05-09 16:42:00,81.0,44.0,-100.00,West,265,6.0,12.0,26,-99.99,,,-99.99,,2013-05-09 20:42:00,
2013-05-09 16:52:00,81.0,44.0,-100.00,WNW,300,4.0,11.0,27,-99.99,,,-99.99,,2013-05-09 20:52:00,
2013-05-09 17:02:00,81.0,44.0,-100.00,SW,230,3.0,11.0,27,-99.99,,,-99.99,,2013-05-09 21:02:00,
2013-05-09 17:12:00,81.0,44.0,-100.00,SW,220,4.0,10.0,27,-99.99,,,-99.99,,2013-05-09 21:12:00,
2013-05-09 17:22:00,80.0,45.0,-100.00,West,260,2.0,5.0,28,-99.99,,,-99.99,,2013-05-09 21:22:00,
2013-05-09 17:32:00,80.0,45.0,-100.00,West,260,2.0,5.0,28,-99.99,,,-99.99,,2013-05-09 21:32:00,
2013-05-09 17:43:00,79.0,46.0,-100.00,South,180,4.0,6.0,31,-99.99,,,-99.99,,2013-05-09 21:43:00,
2013-05-09 17:52:00,78.0,45.0,-100.00,SW,225,3.0,7.0,31,-99.99,,,-99.99,,2013-05-09 21:52:00,
2013-05-09 18:03:00,78.0,46.0,-100.00,SSW,210,2.0,6.0,32,-99.99,,,-99.99,,2013-05-09 22:03:00,
2013-05-09 18:13:00,77.0,46.0,-100.00,WSW,255,2.0,6.0,33,-99.99,,,-99.99,,2013-05-09 22:13:00,
2013-05-09 18:23:00,76.0,46.0,-100.00,WSW,250,2.0,7.0,33,-99.99,,,-99.99,,2013-05-09 22:23:00,
2013-05-09 18:33:00,75.0,46.0,-100.00,SW,220,2.0,6.0,34,-99.99,,,-99.99,,2013-05-09 22:33:00,
2013-05-09 18:42:00,75.0,46.0,-100.00,WSW,240,2.0,4.0,36,-99.99,,,-99.99,,2013-05-09 22:42:00,
2013-05-09 18:52:00,75.0,46.0,-100.00,WSW,240,2.0,4.0,36,-99.99,,,-99.99,,2013-05-09 22:52:00,
2013-05-09 19:02:00,74.0,47.0,-100.00,WNW,300,4.0,7.0,38,-99.99,,,-99.99,,2013-05-09 23:02:00,
2013-05-09 19:12:00,73.0,48.0,-100.00,SW,230,7.0,13.0,40,-99.99,,,-99.99,,2013-05-09 23:12:00,
2013-05-09 19:22:00,73.0,49.0,-100.00,WSW,240,6.0,12.0,43,-99.99,,,-99.99,,2013-05-09 23:22:00,
2013-05-09 19:32:00,72.0,49.0,-100.00,WSW,240,6.0,16.0,44,-99.99,,,-99.99,,2013-05-09 23:32:00,
2013-05-09 19:42:00,71.0,49.0,-100.00,West,265,7.0,13.0,45,-99.99,,,-99.99,,2013-05-09 23:42:00,
2013-05-09 19:52:00,71.0,50.0,-100.00,SW,220,4.0,10.0,47,-99.99,,,-99.99,,2013-05-09 23:52:00,
2013-05-09 20:01:00,70.0,51.0,-100.00,WSW,245,7.0,13.0,51,-99.99,,,-99.99,,2013-05-10 00:01:00,
2013-05-09 20:11:00,68.0,51.0,-100.00,SW,235,3.0,14.0,54,-99.99,,,-99.99,,2013-05-10 00:11:00,
2013-05-09 20:22:00,68.0,51.0,-100.00,South,185,2.0,7.0,55,-99.99,,,-99.99,,2013-05-10 00:22:00,
2013-05-09 20:32:00,67.0,52.0,-100.00,SSW,200,4.0,9.0,57,-99.99,,,-99.99,,2013-05-10 00:32:00,
2013-05-09 20:42:00,67.0,52.0,-100.00,SSW,200,3.0,8.0,57,-99.99,,,-99.99,,2013-05-10 00:42:00,
2013-05-09 20:52:00,67.0,52.0,-100.00,SSW,200,4.0,6.0,58,-99.99,,,-99.99,,2013-05-10 00:52:00,
2013-05-09 21:01:00,66.0,52.0,-100.00,SW,220,2.0,4.0,59,-99.99,,,-99.99,,2013-05-10 01:01:00,
2013-05-09 21:11:00,66.0,52.0,-100.00,WSW,245,2.0,4.0,61,-99.99,,,-99.99,,2013-05-10 01:11:00,
2013-05-09 21:21:00,66.0,53.0,-100.00,West,260,2.0,5.0,62,-99.99,,,-99.99,,2013-05-10 01:21:00,
2013-05-09 21:32:00,66.0,53.0,-100.00,West,280,6.0,9.0,63,-99.99,,,-99.99,,2013-05-10 01:32:00,
2013-05-09 21:42:00,66.0,54.0,-100.00,WNW,295,6.0,9.0,63,-99.99,,,-99.99,,2013-05-10 01:42:00,
2013-05-09 21:52:00,66.0,54.0,-100.00,WNW,295,7.0,9.0,64,-99.99,,,-99.99,,2013-05-10 01:52:00,
2013-05-09 22:02:00,66.0,54.0,-100.00,West,275,4.0,8.0,64,-99.99,,,-99.99,,2013-05-10 02:02:00,
2013-05-09 22:11:00,66.0,54.0,-100.00,West,260,2.0,5.0,66,-99.99,,,-99.99,,2013-05-10 02:11:00,
2013-05-09 22:21:00,65.0,54.0,-100.00,WSW,245,1.0,4.0,67,-99.99,,,-99.99,,2013-05-10 02:21:00,
2013-05-09 22:32:00,65.0,54.0,-100.00,SW,225,1.0,2.0,67,-99.99,,,-99.99,,2013-05-10 02:32:00,
2013-05-09 22:42:00,65.0,54.0,-100.00,SSW,200,2.0,2.0,68,-99.99,,,-99.99,,2013-05-10 02:42:00,
2013-05-09 22:52:00,65.0,55.0,-100.00,South,180,2.0,4.0,70,-99.99,,,-99.99,,2013-05-10 02:52:00,
2013-05-09 23:01:00,65.0,56.0,-100.00,South,180,4.0,6.0,72,-99.99,,,-99.99,,2013-05-10 03:01:00,
2013-05-09 23:11:00,64.0,57.0,-100.00,SSE,155,3.0,6.0,76,-99.99,,,-99.99,,2013-05-10 03:11:00,
2013-05-09 23:22:00,64.0,57.0,-100.00,South,170,4.0,6.0,77,-99.99,,,-99.99,,2013-05-10 03:22:00,
2013-05-09 23:33:00,64.0,57.0,-100.00,South,170,4.0,6.0,79,-99.99,,,-99.99,,2013-05-10 03:33:00,
2013-05-09 23:43:00,63.0,58.0,-100.00,South,180,4.0,7.0,81,-99.99,,,-99.99,,2013-05-10 03:43:00,
2013-05-09 23:53:00,63.0,58.0,-100.00,South,190,3.0,6.0,83,-99.99,,,-99.99,,2013-05-10 03:53:00,